sensor_id;sensor_type;location;lat;lon;timestamp;P1;durP1;ratioP1;P2;durP2;ratioP2
56718;SDS011;42597;40.636;0.278;2023-07-20T00:00:29;37.30;;;18.17;;
56718;SDS011;42597;40.636;0.278;2023-07-20T00:03:09;28.27;;;17.70;;
56718;SDS011;42597;40.636;0.278;2023-07-20T00:05:35;22.88;;;18.23;;
56718;SDS011;42597;40.636;0.278;2023-07-20T00:08:01;22.08;;;14.30;;
56718;SDS011;42597;40.636;0.278;2023-07-20T00:10:26;17.38;;;12.90;;
56718;SDS011;42597;40.636;0.278;2023-07-20T00:12:52;23.88;;;13.68;;
56718;SDS011;42597;40.636;0.278;2023-07-20T00:15:17;19.23;;;12.55;;
56718;SDS011;42597;40.636;0.278;2023-07-20T00:17:43;15.20;;;11.60;;
56718;SDS011;42597;40.636;0.278;2023-07-20T00:20:10;22.90;;;12.90;;
56718;SDS011;42597;40.636;0.278;2023-07-20T00:22:36;13.35;;;10.68;;
56718;SDS011;42597;40.636;0.278;2023-07-20T00:25:02;14.85;;;11.10;;
56718;SDS011;42597;40.636;0.278;2023-07-20T00:27:27;27.17;;;12.75;;
56718;SDS011;42597;40.636;0.278;2023-07-20T00:29:53;26.73;;;14.43;;
56718;SDS011;42597;40.636;0.278;2023-07-20T00:32:18;17.20;;;10.95;;
56718;SDS011;42597;40.636;0.278;2023-07-20T00:34:44;16.25;;;11.73;;
56718;SDS011;42597;40.636;0.278;2023-07-20T00:37:09;24.75;;;14.02;;
56718;SDS011;42597;40.636;0.278;2023-07-20T00:39:35;21.45;;;13.95;;
56718;SDS011;42597;40.636;0.278;2023-07-20T00:42:01;21.77;;;13.80;;
56718;SDS011;42597;40.636;0.278;2023-07-20T00:44:26;15.32;;;12.70;;
56718;SDS011;42597;40.636;0.278;2023-07-20T00:46:52;22.63;;;13.02;;
56718;SDS011;42597;40.636;0.278;2023-07-20T00:49:17;22.40;;;13.82;;
56718;SDS011;42597;40.636;0.278;2023-07-20T00:51:46;13.95;;;10.13;;
56718;SDS011;42597;40.636;0.278;2023-07-20T00:54:12;23.25;;;13.35;;
56718;SDS011;42597;40.636;0.278;2023-07-20T00:56:38;21.92;;;11.38;;
56718;SDS011;42597;40.636;0.278;2023-07-20T00:59:04;19.08;;;12.10;;
56718;SDS011;42597;40.636;0.278;2023-07-20T01:01:30;29.30;;;12.57;;
56718;SDS011;42597;40.636;0.278;2023-07-20T01:03:55;16.90;;;10.85;;
56718;SDS011;42597;40.636;0.278;2023-07-20T01:08:57;20.13;;;10.13;;
56718;SDS011;42597;40.636;0.278;2023-07-20T01:11:45;19.85;;;11.55;;
56718;SDS011;42597;40.636;0.278;2023-07-20T01:14:27;20.58;;;11.45;;
56718;SDS011;42597;40.636;0.278;2023-07-20T01:16:53;27.58;;;14.50;;
56718;SDS011;42597;40.636;0.278;2023-07-20T01:19:19;29.77;;;14.55;;
56718;SDS011;42597;40.636;0.278;2023-07-20T01:22:03;21.40;;;11.85;;
56718;SDS011;42597;40.636;0.278;2023-07-20T01:33:04;22.58;;;14.65;;
56718;SDS011;42597;40.636;0.278;2023-07-20T01:35:32;28.10;;;18.67;;
56718;SDS011;42597;40.636;0.278;2023-07-20T01:37:59;27.52;;;19.50;;
56718;SDS011;42597;40.636;0.278;2023-07-20T01:40:26;24.55;;;18.20;;
56718;SDS011;42597;40.636;0.278;2023-07-20T01:42:52;23.65;;;16.90;;
56718;SDS011;42597;40.636;0.278;2023-07-20T01:45:18;32.40;;;19.27;;
56718;SDS011;42597;40.636;0.278;2023-07-20T01:47:44;29.63;;;18.63;;
56718;SDS011;42597;40.636;0.278;2023-07-20T01:50:10;30.95;;;20.45;;
56718;SDS011;42597;40.636;0.278;2023-07-20T01:52:35;23.65;;;17.17;;
56718;SDS011;42597;40.636;0.278;2023-07-20T01:55:01;21.92;;;16.98;;
56718;SDS011;42597;40.636;0.278;2023-07-20T01:57:26;28.10;;;19.25;;
56718;SDS011;42597;40.636;0.278;2023-07-20T01:59:52;35.00;;;18.88;;
56718;SDS011;42597;40.636;0.278;2023-07-20T02:02:17;22.67;;;13.98;;
56718;SDS011;42597;40.636;0.278;2023-07-20T02:04:43;32.80;;;13.60;;
56718;SDS011;42597;40.636;0.278;2023-07-20T02:07:09;21.20;;;11.15;;
56718;SDS011;42597;40.636;0.278;2023-07-20T02:09:34;18.33;;;14.93;;
56718;SDS011;42597;40.636;0.278;2023-07-20T02:12:00;15.25;;;12.55;;
56718;SDS011;42597;40.636;0.278;2023-07-20T02:14:25;17.65;;;12.13;;
56718;SDS011;42597;40.636;0.278;2023-07-20T02:16:51;28.67;;;16.25;;
56718;SDS011;42597;40.636;0.278;2023-07-20T02:19:17;21.70;;;14.77;;
56718;SDS011;42597;40.636;0.278;2023-07-20T02:21:44;26.08;;;16.88;;
56718;SDS011;42597;40.636;0.278;2023-07-20T02:24:09;26.85;;;15.75;;
56718;SDS011;42597;40.636;0.278;2023-07-20T02:26:35;26.80;;;18.30;;
56718;SDS011;42597;40.636;0.278;2023-07-20T02:29:00;25.23;;;16.65;;
56718;SDS011;42597;40.636;0.278;2023-07-20T02:31:29;26.27;;;18.00;;
56718;SDS011;42597;40.636;0.278;2023-07-20T02:33:55;20.13;;;15.40;;
56718;SDS011;42597;40.636;0.278;2023-07-20T02:36:20;17.73;;;13.65;;
56718;SDS011;42597;40.636;0.278;2023-07-20T02:38:46;24.92;;;15.55;;
56718;SDS011;42597;40.636;0.278;2023-07-20T02:41:12;20.73;;;12.00;;
56718;SDS011;42597;40.636;0.278;2023-07-20T02:43:38;19.38;;;12.95;;
56718;SDS011;42597;40.636;0.278;2023-07-20T02:46:04;16.48;;;12.05;;
56718;SDS011;42597;40.636;0.278;2023-07-20T02:48:29;19.40;;;12.57;;
56718;SDS011;42597;40.636;0.278;2023-07-20T02:50:55;19.90;;;12.32;;
56718;SDS011;42597;40.636;0.278;2023-07-20T02:53:20;16.23;;;11.65;;
56718;SDS011;42597;40.636;0.278;2023-07-20T02:55:46;16.00;;;12.80;;
56718;SDS011;42597;40.636;0.278;2023-07-20T02:58:12;25.77;;;16.40;;
56718;SDS011;42597;40.636;0.278;2023-07-20T03:00:38;24.75;;;16.30;;
56718;SDS011;42597;40.636;0.278;2023-07-20T03:03:03;33.17;;;14.98;;
56718;SDS011;42597;40.636;0.278;2023-07-20T03:05:29;22.30;;;14.02;;
56718;SDS011;42597;40.636;0.278;2023-07-20T03:07:55;20.10;;;12.45;;
56718;SDS011;42597;40.636;0.278;2023-07-20T03:10:21;16.10;;;11.35;;
56718;SDS011;42597;40.636;0.278;2023-07-20T03:12:46;19.42;;;14.00;;
56718;SDS011;42597;40.636;0.278;2023-07-20T03:15:12;25.40;;;13.30;;
56718;SDS011;42597;40.636;0.278;2023-07-20T03:17:37;21.13;;;12.90;;
56718;SDS011;42597;40.636;0.278;2023-07-20T03:20:03;18.88;;;12.88;;
56718;SDS011;42597;40.636;0.278;2023-07-20T03:22:30;20.58;;;13.48;;
56718;SDS011;42597;40.636;0.278;2023-07-20T03:24:56;18.85;;;11.95;;
56718;SDS011;42597;40.636;0.278;2023-07-20T03:27:21;17.70;;;15.90;;
56718;SDS011;42597;40.636;0.278;2023-07-20T03:29:47;19.40;;;14.18;;
56718;SDS011;42597;40.636;0.278;2023-07-20T03:32:12;15.82;;;12.00;;
56718;SDS011;42597;40.636;0.278;2023-07-20T03:34:38;27.25;;;15.00;;
56718;SDS011;42597;40.636;0.278;2023-07-20T03:37:03;20.02;;;12.88;;
56718;SDS011;42597;40.636;0.278;2023-07-20T03:39:30;29.13;;;13.80;;
56718;SDS011;42597;40.636;0.278;2023-07-20T03:41:57;30.55;;;16.42;;
56718;SDS011;42597;40.636;0.278;2023-07-20T03:44:23;21.75;;;11.18;;
56718;SDS011;42597;40.636;0.278;2023-07-20T03:46:48;24.35;;;14.18;;
56718;SDS011;42597;40.636;0.278;2023-07-20T03:49:14;21.95;;;14.60;;
56718;SDS011;42597;40.636;0.278;2023-07-20T03:51:39;21.25;;;12.57;;
56718;SDS011;42597;40.636;0.278;2023-07-20T03:54:05;20.67;;;13.75;;
56718;SDS011;42597;40.636;0.278;2023-07-20T03:56:30;23.50;;;13.35;;
56718;SDS011;42597;40.636;0.278;2023-07-20T03:59:00;24.55;;;12.73;;
56718;SDS011;42597;40.636;0.278;2023-07-20T04:01:25;22.73;;;13.57;;
56718;SDS011;42597;40.636;0.278;2023-07-20T04:03:51;18.63;;;14.63;;
56718;SDS011;42597;40.636;0.278;2023-07-20T04:06:16;17.10;;;12.63;;
56718;SDS011;42597;40.636;0.278;2023-07-20T04:08:42;14.55;;;12.60;;
56718;SDS011;42597;40.636;0.278;2023-07-20T04:11:09;17.30;;;11.93;;
56718;SDS011;42597;40.636;0.278;2023-07-20T04:13:35;20.33;;;12.02;;
56718;SDS011;42597;40.636;0.278;2023-07-20T04:16:00;16.75;;;12.18;;
56718;SDS011;42597;40.636;0.278;2023-07-20T04:18:27;24.00;;;12.82;;
56718;SDS011;42597;40.636;0.278;2023-07-20T04:20:53;20.23;;;12.70;;
56718;SDS011;42597;40.636;0.278;2023-07-20T04:23:18;21.92;;;13.18;;
56718;SDS011;42597;40.636;0.278;2023-07-20T04:25:44;16.67;;;14.20;;
56718;SDS011;42597;40.636;0.278;2023-07-20T04:28:09;24.52;;;15.05;;
56718;SDS011;42597;40.636;0.278;2023-07-20T04:30:36;18.10;;;12.77;;
56718;SDS011;42597;40.636;0.278;2023-07-20T04:33:02;20.35;;;12.27;;
56718;SDS011;42597;40.636;0.278;2023-07-20T04:40:46;19.98;;;12.88;;
56718;SDS011;42597;40.636;0.278;2023-07-20T04:43:13;17.63;;;12.63;;
56718;SDS011;42597;40.636;0.278;2023-07-20T04:45:42;16.58;;;11.60;;
56718;SDS011;42597;40.636;0.278;2023-07-20T04:48:10;15.52;;;11.52;;
56718;SDS011;42597;40.636;0.278;2023-07-20T04:50:38;19.83;;;12.80;;
56718;SDS011;42597;40.636;0.278;2023-07-20T04:53:05;19.67;;;13.07;;
56718;SDS011;42597;40.636;0.278;2023-07-20T04:55:31;18.92;;;10.77;;
56718;SDS011;42597;40.636;0.278;2023-07-20T04:57:59;13.77;;;11.70;;
56718;SDS011;42597;40.636;0.278;2023-07-20T05:00:25;18.20;;;10.85;;
56718;SDS011;42597;40.636;0.278;2023-07-20T05:02:51;19.67;;;11.45;;
56718;SDS011;42597;40.636;0.278;2023-07-20T05:05:17;23.27;;;12.48;;
56718;SDS011;42597;40.636;0.278;2023-07-20T05:07:42;15.43;;;10.77;;
56718;SDS011;42597;40.636;0.278;2023-07-20T05:10:08;20.52;;;11.10;;
56718;SDS011;42597;40.636;0.278;2023-07-20T05:12:34;18.77;;;10.00;;
56718;SDS011;42597;40.636;0.278;2023-07-20T05:14:59;16.05;;;11.63;;
56718;SDS011;42597;40.636;0.278;2023-07-20T05:17:25;19.00;;;12.98;;
56718;SDS011;42597;40.636;0.278;2023-07-20T05:19:50;18.25;;;11.30;;
56718;SDS011;42597;40.636;0.278;2023-07-20T05:22:16;18.67;;;11.60;;
56718;SDS011;42597;40.636;0.278;2023-07-20T05:24:42;20.80;;;11.57;;
56718;SDS011;42597;40.636;0.278;2023-07-20T05:27:08;20.63;;;11.30;;
56718;SDS011;42597;40.636;0.278;2023-07-20T05:29:33;20.90;;;12.20;;
56718;SDS011;42597;40.636;0.278;2023-07-20T05:31:59;19.33;;;11.45;;
56718;SDS011;42597;40.636;0.278;2023-07-20T05:34:24;19.75;;;11.73;;
56718;SDS011;42597;40.636;0.278;2023-07-20T05:36:50;21.33;;;11.52;;
56718;SDS011;42597;40.636;0.278;2023-07-20T05:39:18;17.15;;;10.07;;
56718;SDS011;42597;40.636;0.278;2023-07-20T05:41:44;16.42;;;9.40;;
56718;SDS011;42597;40.636;0.278;2023-07-20T05:44:09;13.60;;;8.98;;
56718;SDS011;42597;40.636;0.278;2023-07-20T05:46:35;12.25;;;9.20;;
56718;SDS011;42597;40.636;0.278;2023-07-20T05:49:00;19.98;;;10.10;;
56718;SDS011;42597;40.636;0.278;2023-07-20T05:51:27;14.20;;;9.43;;
56718;SDS011;42597;40.636;0.278;2023-07-20T05:53:52;11.05;;;9.30;;
56718;SDS011;42597;40.636;0.278;2023-07-20T05:56:18;13.40;;;9.50;;
56718;SDS011;42597;40.636;0.278;2023-07-20T05:58:44;14.15;;;8.68;;
56718;SDS011;42597;40.636;0.278;2023-07-20T06:01:09;13.68;;;8.25;;
56718;SDS011;42597;40.636;0.278;2023-07-20T06:03:35;24.95;;;10.57;;
56718;SDS011;42597;40.636;0.278;2023-07-20T06:06:01;16.45;;;10.43;;
56718;SDS011;42597;40.636;0.278;2023-07-20T06:08:31;17.17;;;9.60;;
56718;SDS011;42597;40.636;0.278;2023-07-20T06:10:56;17.95;;;10.98;;
56718;SDS011;42597;40.636;0.278;2023-07-20T06:13:22;18.50;;;11.60;;
56718;SDS011;42597;40.636;0.278;2023-07-20T06:15:49;20.05;;;10.73;;
56718;SDS011;42597;40.636;0.278;2023-07-20T06:18:14;19.48;;;11.75;;
56718;SDS011;42597;40.636;0.278;2023-07-20T06:20:40;17.73;;;11.15;;
56718;SDS011;42597;40.636;0.278;2023-07-20T06:23:06;12.32;;;9.60;;
56718;SDS011;42597;40.636;0.278;2023-07-20T06:25:31;29.00;;;11.75;;
56718;SDS011;42597;40.636;0.278;2023-07-20T06:27:57;18.83;;;10.80;;
56718;SDS011;42597;40.636;0.278;2023-07-20T06:30:23;16.98;;;10.48;;
56718;SDS011;42597;40.636;0.278;2023-07-20T06:32:49;14.15;;;10.88;;
56718;SDS011;42597;40.636;0.278;2023-07-20T06:35:15;12.35;;;9.20;;
56718;SDS011;42597;40.636;0.278;2023-07-20T06:37:41;20.80;;;11.10;;
56718;SDS011;42597;40.636;0.278;2023-07-20T06:40:07;13.05;;;9.95;;
56718;SDS011;42597;40.636;0.278;2023-07-20T06:42:34;15.85;;;10.73;;
56718;SDS011;42597;40.636;0.278;2023-07-20T06:45:00;16.95;;;10.52;;
56718;SDS011;42597;40.636;0.278;2023-07-20T06:47:25;15.18;;;10.55;;
56718;SDS011;42597;40.636;0.278;2023-07-20T06:49:51;15.32;;;10.10;;
56718;SDS011;42597;40.636;0.278;2023-07-20T06:52:17;19.83;;;10.18;;
56718;SDS011;42597;40.636;0.278;2023-07-20T06:54:43;23.77;;;11.35;;
56718;SDS011;42597;40.636;0.278;2023-07-20T06:57:08;23.85;;;11.75;;
56718;SDS011;42597;40.636;0.278;2023-07-20T06:59:34;13.93;;;9.30;;
56718;SDS011;42597;40.636;0.278;2023-07-20T07:01:59;17.38;;;10.60;;
56718;SDS011;42597;40.636;0.278;2023-07-20T07:04:25;16.88;;;11.15;;
56718;SDS011;42597;40.636;0.278;2023-07-20T07:06:50;16.80;;;10.63;;
56718;SDS011;42597;40.636;0.278;2023-07-20T07:09:16;16.30;;;10.35;;
56718;SDS011;42597;40.636;0.278;2023-07-20T07:11:41;19.50;;;11.73;;
56718;SDS011;42597;40.636;0.278;2023-07-20T07:14:07;19.05;;;9.10;;
56718;SDS011;42597;40.636;0.278;2023-07-20T07:16:32;20.67;;;10.77;;
56718;SDS011;42597;40.636;0.278;2023-07-20T07:18:58;13.38;;;8.93;;
56718;SDS011;42597;40.636;0.278;2023-07-20T07:21:24;16.45;;;8.52;;
56718;SDS011;42597;40.636;0.278;2023-07-20T07:23:50;18.95;;;9.68;;
56718;SDS011;42597;40.636;0.278;2023-07-20T07:26:18;14.23;;;8.63;;
56718;SDS011;42597;40.636;0.278;2023-07-20T07:28:44;15.80;;;8.55;;
56718;SDS011;42597;40.636;0.278;2023-07-20T07:31:09;18.35;;;10.15;;
56718;SDS011;42597;40.636;0.278;2023-07-20T07:33:35;23.35;;;11.30;;
56718;SDS011;42597;40.636;0.278;2023-07-20T07:36:01;16.13;;;9.32;;
56718;SDS011;42597;40.636;0.278;2023-07-20T07:38:26;14.38;;;8.38;;
56718;SDS011;42597;40.636;0.278;2023-07-20T07:40:52;14.68;;;8.77;;
56718;SDS011;42597;40.636;0.278;2023-07-20T07:43:17;13.48;;;8.20;;
56718;SDS011;42597;40.636;0.278;2023-07-20T07:45:43;21.15;;;9.15;;
56718;SDS011;42597;40.636;0.278;2023-07-20T07:48:09;15.35;;;9.82;;
56718;SDS011;42597;40.636;0.278;2023-07-20T07:50:37;22.48;;;9.18;;
56718;SDS011;42597;40.636;0.278;2023-07-20T07:53:04;18.58;;;10.63;;
56718;SDS011;42597;40.636;0.278;2023-07-20T07:55:29;15.45;;;10.50;;
56718;SDS011;42597;40.636;0.278;2023-07-20T07:57:55;19.35;;;10.20;;
56718;SDS011;42597;40.636;0.278;2023-07-20T08:00:21;17.50;;;10.05;;
56718;SDS011;42597;40.636;0.278;2023-07-20T08:02:46;17.35;;;9.45;;
56718;SDS011;42597;40.636;0.278;2023-07-20T08:05:15;16.35;;;9.43;;
56718;SDS011;42597;40.636;0.278;2023-07-20T08:07:41;14.77;;;11.00;;
56718;SDS011;42597;40.636;0.278;2023-07-20T08:10:07;14.60;;;8.85;;
56718;SDS011;42597;40.636;0.278;2023-07-20T08:12:33;16.33;;;10.45;;
56718;SDS011;42597;40.636;0.278;2023-07-20T08:14:59;14.25;;;9.30;;
56718;SDS011;42597;40.636;0.278;2023-07-20T08:17:24;15.85;;;9.57;;
56718;SDS011;42597;40.636;0.278;2023-07-20T08:19:50;18.65;;;10.55;;
56718;SDS011;42597;40.636;0.278;2023-07-20T08:22:16;13.68;;;9.20;;
56718;SDS011;42597;40.636;0.278;2023-07-20T08:24:42;14.57;;;9.25;;
56718;SDS011;42597;40.636;0.278;2023-07-20T08:27:08;14.60;;;9.30;;
56718;SDS011;42597;40.636;0.278;2023-07-20T08:29:35;17.90;;;10.68;;
56718;SDS011;42597;40.636;0.278;2023-07-20T08:32:02;17.27;;;8.73;;
56718;SDS011;42597;40.636;0.278;2023-07-20T08:34:27;17.88;;;10.00;;
56718;SDS011;42597;40.636;0.278;2023-07-20T08:36:53;10.77;;;7.63;;
56718;SDS011;42597;40.636;0.278;2023-07-20T08:39:18;22.08;;;10.52;;
56718;SDS011;42597;40.636;0.278;2023-07-20T08:41:46;19.17;;;9.60;;
56718;SDS011;42597;40.636;0.278;2023-07-20T08:44:12;14.18;;;10.70;;
56718;SDS011;42597;40.636;0.278;2023-07-20T08:46:38;15.63;;;10.52;;
56718;SDS011;42597;40.636;0.278;2023-07-20T08:49:04;18.35;;;10.40;;
56718;SDS011;42597;40.636;0.278;2023-07-20T08:51:30;18.65;;;9.38;;
56718;SDS011;42597;40.636;0.278;2023-07-20T08:53:58;20.17;;;11.20;;
56718;SDS011;42597;40.636;0.278;2023-07-20T08:56:25;18.30;;;9.67;;
56718;SDS011;42597;40.636;0.278;2023-07-20T08:58:51;12.93;;;8.68;;
56718;SDS011;42597;40.636;0.278;2023-07-20T09:01:18;20.25;;;10.85;;
56718;SDS011;42597;40.636;0.278;2023-07-20T09:03:45;16.95;;;8.98;;
56718;SDS011;42597;40.636;0.278;2023-07-20T09:06:11;20.90;;;9.57;;
56718;SDS011;42597;40.636;0.278;2023-07-20T09:08:38;12.13;;;8.43;;
56718;SDS011;42597;40.636;0.278;2023-07-20T09:11:04;16.75;;;9.93;;
56718;SDS011;42597;40.636;0.278;2023-07-20T09:13:31;15.60;;;9.35;;
56718;SDS011;42597;40.636;0.278;2023-07-20T09:15:57;14.52;;;9.18;;
56718;SDS011;42597;40.636;0.278;2023-07-20T09:18:30;18.33;;;10.23;;
56718;SDS011;42597;40.636;0.278;2023-07-20T09:21:02;19.27;;;9.68;;
56718;SDS011;42597;40.636;0.278;2023-07-20T09:23:35;14.98;;;10.77;;
56718;SDS011;42597;40.636;0.278;2023-07-20T09:26:12;18.90;;;8.50;;
56718;SDS011;42597;40.636;0.278;2023-07-20T09:28:57;22.00;;;9.55;;
56718;SDS011;42597;40.636;0.278;2023-07-20T09:31:22;16.05;;;8.65;;
56718;SDS011;42597;40.636;0.278;2023-07-20T09:33:49;18.38;;;9.57;;
56718;SDS011;42597;40.636;0.278;2023-07-20T09:36:17;15.55;;;9.45;;
56718;SDS011;42597;40.636;0.278;2023-07-20T09:38:42;13.05;;;8.90;;
56718;SDS011;42597;40.636;0.278;2023-07-20T09:41:12;14.40;;;9.20;;
56718;SDS011;42597;40.636;0.278;2023-07-20T09:43:41;18.92;;;10.63;;
56718;SDS011;42597;40.636;0.278;2023-07-20T09:46:07;12.05;;;8.63;;
56718;SDS011;42597;40.636;0.278;2023-07-20T09:48:33;14.75;;;10.13;;
56718;SDS011;42597;40.636;0.278;2023-07-20T09:50:58;16.40;;;9.88;;
56718;SDS011;42597;40.636;0.278;2023-07-20T09:53:25;17.00;;;10.07;;
56718;SDS011;42597;40.636;0.278;2023-07-20T09:55:51;14.93;;;9.13;;
56718;SDS011;42597;40.636;0.278;2023-07-20T09:58:18;21.90;;;9.93;;
56718;SDS011;42597;40.636;0.278;2023-07-20T10:00:44;16.70;;;9.65;;
56718;SDS011;42597;40.636;0.278;2023-07-20T10:03:16;19.15;;;9.88;;
56718;SDS011;42597;40.636;0.278;2023-07-20T10:05:46;23.98;;;11.30;;
56718;SDS011;42597;40.636;0.278;2023-07-20T10:08:16;14.02;;;9.05;;
56718;SDS011;42597;40.636;0.278;2023-07-20T10:10:45;21.27;;;10.20;;
56718;SDS011;42597;40.636;0.278;2023-07-20T10:13:17;15.73;;;8.80;;
56718;SDS011;42597;40.636;0.278;2023-07-20T10:18:51;16.30;;;9.68;;
56718;SDS011;42597;40.636;0.278;2023-07-20T10:22:03;15.90;;;10.25;;
56718;SDS011;42597;40.636;0.278;2023-07-20T10:24:36;15.15;;;10.40;;
56718;SDS011;42597;40.636;0.278;2023-07-20T10:27:03;14.55;;;10.10;;
56718;SDS011;42597;40.636;0.278;2023-07-20T10:29:30;19.30;;;10.00;;
56718;SDS011;42597;40.636;0.278;2023-07-20T10:31:57;24.27;;;12.13;;
56718;SDS011;42597;40.636;0.278;2023-07-20T10:34:23;14.93;;;11.93;;
56718;SDS011;42597;40.636;0.278;2023-07-20T10:36:49;22.42;;;11.43;;
56718;SDS011;42597;40.636;0.278;2023-07-20T10:39:25;20.38;;;12.43;;
56718;SDS011;42597;40.636;0.278;2023-07-20T10:42:08;22.42;;;13.63;;
56718;SDS011;42597;40.636;0.278;2023-07-20T10:44:37;29.50;;;11.27;;
56718;SDS011;42597;40.636;0.278;2023-07-20T10:47:10;20.92;;;10.23;;
56718;SDS011;42597;40.636;0.278;2023-07-20T10:49:57;18.77;;;11.18;;
56718;SDS011;42597;40.636;0.278;2023-07-20T10:52:23;18.00;;;12.02;;
56718;SDS011;42597;40.636;0.278;2023-07-20T10:54:48;19.23;;;9.82;;
56718;SDS011;42597;40.636;0.278;2023-07-20T10:57:30;19.52;;;10.95;;
56718;SDS011;42597;40.636;0.278;2023-07-20T11:00:09;21.27;;;11.45;;
56718;SDS011;42597;40.636;0.278;2023-07-20T11:02:43;20.98;;;12.13;;
56718;SDS011;42597;40.636;0.278;2023-07-20T11:07:58;22.80;;;11.55;;
56718;SDS011;42597;40.636;0.278;2023-07-20T11:10:23;20.65;;;10.93;;
56718;SDS011;42597;40.636;0.278;2023-07-20T11:13:34;24.38;;;13.18;;
56718;SDS011;42597;40.636;0.278;2023-07-20T11:16:23;21.00;;;11.50;;
56718;SDS011;42597;40.636;0.278;2023-07-20T11:18:30;18.17;;;11.90;;
56718;SDS011;42597;40.636;0.278;2023-07-20T11:20:58;19.00;;;11.30;;
56718;SDS011;42597;40.636;0.278;2023-07-20T11:23:24;18.63;;;10.77;;
56718;SDS011;42597;40.636;0.278;2023-07-20T11:25:50;23.60;;;12.15;;
56718;SDS011;42597;40.636;0.278;2023-07-20T11:28:15;26.80;;;11.20;;
56718;SDS011;42597;40.636;0.278;2023-07-20T11:30:41;22.25;;;11.63;;
56718;SDS011;42597;40.636;0.278;2023-07-20T11:33:09;20.52;;;11.52;;
56718;SDS011;42597;40.636;0.278;2023-07-20T11:35:44;18.95;;;9.73;;
56718;SDS011;42597;40.636;0.278;2023-07-20T11:40:43;16.50;;;10.40;;
56718;SDS011;42597;40.636;0.278;2023-07-20T11:43:12;16.55;;;8.18;;
56718;SDS011;42597;40.636;0.278;2023-07-20T11:45:38;22.40;;;10.57;;
56718;SDS011;42597;40.636;0.278;2023-07-20T11:48:05;18.25;;;8.77;;
56718;SDS011;42597;40.636;0.278;2023-07-20T11:50:30;15.10;;;9.40;;
56718;SDS011;42597;40.636;0.278;2023-07-20T11:52:56;17.05;;;8.93;;
56718;SDS011;42597;40.636;0.278;2023-07-20T11:55:22;15.80;;;9.65;;
56718;SDS011;42597;40.636;0.278;2023-07-20T12:00:44;17.80;;;10.07;;
56718;SDS011;42597;40.636;0.278;2023-07-20T12:03:10;18.20;;;8.77;;
56718;SDS011;42597;40.636;0.278;2023-07-20T12:05:40;19.63;;;9.73;;
56718;SDS011;42597;40.636;0.278;2023-07-20T12:10:31;18.80;;;8.48;;
56718;SDS011;42597;40.636;0.278;2023-07-20T12:13:02;16.98;;;8.68;;
56718;SDS011;42597;40.636;0.278;2023-07-20T12:15:29;15.50;;;10.20;;
56718;SDS011;42597;40.636;0.278;2023-07-20T12:17:59;24.75;;;7.85;;
56718;SDS011;42597;40.636;0.278;2023-07-20T12:22:55;17.45;;;7.80;;
56718;SDS011;42597;40.636;0.278;2023-07-20T12:25:36;19.77;;;8.05;;
56718;SDS011;42597;40.636;0.278;2023-07-20T12:28:16;26.45;;;9.50;;
56718;SDS011;42597;40.636;0.278;2023-07-20T12:30:44;17.25;;;8.63;;
56718;SDS011;42597;40.636;0.278;2023-07-20T12:33:10;18.52;;;8.30;;
56718;SDS011;42597;40.636;0.278;2023-07-20T12:35:40;19.17;;;9.23;;
56718;SDS011;42597;40.636;0.278;2023-07-20T12:38:06;18.20;;;8.90;;
56718;SDS011;42597;40.636;0.278;2023-07-20T12:40:32;17.80;;;8.25;;
56718;SDS011;42597;40.636;0.278;2023-07-20T12:42:57;19.73;;;8.13;;
56718;SDS011;42597;40.636;0.278;2023-07-20T12:45:23;17.02;;;6.90;;
56718;SDS011;42597;40.636;0.278;2023-07-20T12:47:49;17.45;;;8.73;;
56718;SDS011;42597;40.636;0.278;2023-07-20T12:50:14;19.42;;;8.73;;
56718;SDS011;42597;40.636;0.278;2023-07-20T12:52:40;19.00;;;7.10;;
56718;SDS011;42597;40.636;0.278;2023-07-20T12:55:06;20.90;;;8.23;;
56718;SDS011;42597;40.636;0.278;2023-07-20T12:57:34;16.50;;;7.70;;
56718;SDS011;42597;40.636;0.278;2023-07-20T13:00:00;16.55;;;7.25;;
56718;SDS011;42597;40.636;0.278;2023-07-20T13:02:28;15.55;;;7.25;;
56718;SDS011;42597;40.636;0.278;2023-07-20T13:04:55;13.15;;;6.75;;
56718;SDS011;42597;40.636;0.278;2023-07-20T13:07:28;19.08;;;7.45;;
56718;SDS011;42597;40.636;0.278;2023-07-20T13:09:58;16.10;;;8.60;;
56718;SDS011;42597;40.636;0.278;2023-07-20T13:12:28;21.23;;;7.93;;
56718;SDS011;42597;40.636;0.278;2023-07-20T13:14:55;18.55;;;8.38;;
56718;SDS011;42597;40.636;0.278;2023-07-20T13:17:21;19.15;;;7.43;;
56718;SDS011;42597;40.636;0.278;2023-07-20T13:19:48;14.85;;;8.23;;
56718;SDS011;42597;40.636;0.278;2023-07-20T13:22:13;15.73;;;7.85;;
56718;SDS011;42597;40.636;0.278;2023-07-20T13:24:40;19.55;;;8.10;;
56718;SDS011;42597;40.636;0.278;2023-07-20T13:27:06;29.08;;;14.88;;
56718;SDS011;42597;40.636;0.278;2023-07-20T13:29:31;28.75;;;11.70;;
56718;SDS011;42597;40.636;0.278;2023-07-20T13:31:58;17.23;;;7.60;;
56718;SDS011;42597;40.636;0.278;2023-07-20T13:34:24;18.33;;;7.18;;
56718;SDS011;42597;40.636;0.278;2023-07-20T13:36:51;16.48;;;8.50;;
56718;SDS011;42597;40.636;0.278;2023-07-20T13:39:16;16.30;;;7.30;;
56718;SDS011;42597;40.636;0.278;2023-07-20T13:41:42;21.73;;;6.85;;
56718;SDS011;42597;40.636;0.278;2023-07-20T13:44:07;18.58;;;7.70;;
56718;SDS011;42597;40.636;0.278;2023-07-20T13:46:33;18.02;;;7.68;;
56718;SDS011;42597;40.636;0.278;2023-07-20T13:48:59;11.02;;;7.00;;
56718;SDS011;42597;40.636;0.278;2023-07-20T13:51:25;21.60;;;8.70;;
56718;SDS011;42597;40.636;0.278;2023-07-20T13:53:51;15.25;;;7.20;;
56718;SDS011;42597;40.636;0.278;2023-07-20T13:56:17;17.67;;;6.47;;
56718;SDS011;42597;40.636;0.278;2023-07-20T13:58:42;20.13;;;8.32;;
56718;SDS011;42597;40.636;0.278;2023-07-20T14:01:08;16.52;;;7.47;;
56718;SDS011;42597;40.636;0.278;2023-07-20T14:03:33;13.20;;;6.53;;
56718;SDS011;42597;40.636;0.278;2023-07-20T14:05:59;17.20;;;7.53;;
56718;SDS011;42597;40.636;0.278;2023-07-20T14:08:24;18.65;;;6.55;;
56718;SDS011;42597;40.636;0.278;2023-07-20T14:10:50;25.20;;;6.80;;
56718;SDS011;42597;40.636;0.278;2023-07-20T14:13:15;11.55;;;6.88;;
56718;SDS011;42597;40.636;0.278;2023-07-20T14:15:41;15.50;;;6.43;;
56718;SDS011;42597;40.636;0.278;2023-07-20T14:18:06;20.70;;;7.10;;
56718;SDS011;42597;40.636;0.278;2023-07-20T14:20:32;19.73;;;6.90;;
56718;SDS011;42597;40.636;0.278;2023-07-20T14:22:58;16.25;;;6.55;;
56718;SDS011;42597;40.636;0.278;2023-07-20T14:25:23;15.27;;;7.00;;
56718;SDS011;42597;40.636;0.278;2023-07-20T14:27:49;15.13;;;6.90;;
56718;SDS011;42597;40.636;0.278;2023-07-20T14:30:14;8.80;;;5.63;;
56718;SDS011;42597;40.636;0.278;2023-07-20T14:32:40;23.60;;;8.27;;
56718;SDS011;42597;40.636;0.278;2023-07-20T14:35:06;21.83;;;7.60;;
56718;SDS011;42597;40.636;0.278;2023-07-20T14:37:32;20.90;;;8.15;;
56718;SDS011;42597;40.636;0.278;2023-07-20T14:39:59;15.15;;;6.95;;
56718;SDS011;42597;40.636;0.278;2023-07-20T14:42:24;14.57;;;7.15;;
56718;SDS011;42597;40.636;0.278;2023-07-20T14:44:50;17.23;;;6.93;;
56718;SDS011;42597;40.636;0.278;2023-07-20T14:47:15;16.13;;;7.80;;
56718;SDS011;42597;40.636;0.278;2023-07-20T14:49:41;16.13;;;7.35;;
56718;SDS011;42597;40.636;0.278;2023-07-20T14:52:06;17.60;;;7.25;;
56718;SDS011;42597;40.636;0.278;2023-07-20T14:54:32;16.05;;;7.18;;
56718;SDS011;42597;40.636;0.278;2023-07-20T14:56:59;13.40;;;7.50;;